Time;durP1;ratioP1;P1;durP2;ratioP2;P2;SDS_P1;SDS_P2;PMS_P1;PMS_P2;Temp;Humidity;BMP_temperature;BMP_pressure;BME280_temperature;BME280_humidity;BME280_pressure;Samples;Min_cycle;Max_cycle;Signal;HPM_P1;HPM_P2
2024/04/01 00:00:40;;;;;;;12.13;8.73;;;7.60;99.90;;;;;;4959070;28;20026;-83
2024/04/01 00:03:06;;;;;;;11.23;8.60;;;7.50;99.90;;;;;;4914202;28;20561;-83
2024/04/01 00:05:32;;;;;;;14.57;9.27;;;7.50;99.90;;;;;;4914341;28;20026;-83
2024/04/01 00:07:59;;;;;;;13.05;9.25;;;7.50;99.90;;;;;;4978392;28;20108;-83
2024/04/01 00:10:24;;;;;;;14.18;9.23;;;7.50;99.90;;;;;;4922187;28;20111;-83
2024/04/01 00:12:50;;;;;;;12.45;8.65;;;7.40;99.90;;;;;;4959243;28;20060;-83
2024/04/01 00:15:16;;;;;;;10.02;7.78;;;7.40;99.90;;;;;;4939203;28;20025;-84
2024/04/01 00:17:42;;;;;;;11.57;8.90;;;7.40;99.90;;;;;;4928029;28;20025;-83
2024/04/01 00:20:08;;;;;;;13.10;8.82;;;7.40;99.90;;;;;;4974579;28;20032;-84
2024/04/01 00:22:34;;;;;;;14.93;9.48;;;7.40;99.90;;;;;;4914108;28;20025;-84
2024/04/01 00:24:59;;;;;;;12.07;8.48;;;7.30;99.90;;;;;;4917959;28;20025;-83
2024/04/01 00:27:25;;;;;;;10.20;6.85;;;7.30;99.90;;;;;;4971941;28;20576;-84
2024/04/01 00:29:50;;;;;;;8.88;7.50;;;7.30;99.90;;;;;;4936784;28;22429;-84
2024/04/01 00:32:16;;;;;;;8.85;7.65;;;7.20;99.90;;;;;;5025800;28;20025;-83
2024/04/01 00:34:41;;;;;;;9.63;7.65;;;7.20;99.90;;;;;;4930717;28;20563;-84
2024/04/01 00:37:07;;;;;;;12.25;8.77;;;7.20;99.90;;;;;;4970118;28;20108;-84
2024/04/01 00:39:33;;;;;;;14.57;9.55;;;7.10;99.90;;;;;;4979112;28;20057;-86
2024/04/01 00:41:58;;;;;;;13.95;8.90;;;7.10;99.90;;;;;;4975808;28;20029;-82
2024/04/01 00:44:24;;;;;;;8.55;6.85;;;7.00;99.90;;;;;;5019460;28;20040;-83
2024/04/01 00:46:51;;;;;;;8.68;7.68;;;7.00;99.90;;;;;;4975181;28;20029;-83
2024/04/01 00:49:20;;;;;;;10.50;8.02;;;7.00;99.90;;;;;;4967896;28;20045;-83
2024/04/01 00:51:46;;;;;;;13.30;8.30;;;7.00;99.90;;;;;;4978172;28;20386;-84
2024/04/01 00:54:13;;;;;;;9.82;8.38;;;6.90;99.90;;;;;;4970321;28;20029;-86
2024/04/01 00:56:43;;;;;;;10.88;8.10;;;6.90;99.90;;;;;;4964281;28;20048;-84
2024/04/01 00:59:08;;;;;;;11.93;9.35;;;6.90;99.90;;;;;;5008561;28;20025;-83
2024/04/01 01:01:35;;;;;;;14.73;9.57;;;6.90;99.90;;;;;;4982445;28;20029;-85
2024/04/01 01:04:02;;;;;;;12.73;9.07;;;6.90;99.90;;;;;;4961079;28;20087;-84
2024/04/01 01:06:30;;;;;;;10.27;8.25;;;6.90;99.90;;;;;;4948234;28;20033;-85
2024/04/01 01:08:57;;;;;;;10.55;8.65;;;6.80;99.90;;;;;;4967432;28;20034;-84
2024/04/01 01:11:24;;;;;;;12.65;8.45;;;6.80;99.90;;;;;;4996714;28;20029;-84
2024/04/01 01:13:50;;;;;;;12.57;8.35;;;6.80;99.90;;;;;;4976316;28;20079;-84
2024/04/01 01:16:16;;;;;;;11.25;8.75;;;6.70;99.90;;;;;;4951806;28;20386;-84
2024/04/01 01:18:42;;;;;;;13.45;8.63;;;6.70;99.90;;;;;;4968101;28;20021;-84
2024/04/01 01:21:08;;;;;;;10.57;8.63;;;6.60;99.90;;;;;;4972215;28;20048;-84
2024/04/01 01:23:34;;;;;;;11.73;8.15;;;6.60;99.90;;;;;;4945169;28;20045;-84
2024/04/01 01:25:59;;;;;;;11.15;7.82;;;6.60;99.90;;;;;;4983713;28;20115;-84
2024/04/01 01:28:27;;;;;;;11.75;8.85;;;6.60;99.90;;;;;;4983999;28;20033;-84
2024/04/01 01:30:52;;;;;;;9.70;8.65;;;6.50;99.90;;;;;;4936169;28;20030;-83
2024/04/01 01:33:18;;;;;;;12.75;9.50;;;6.50;99.90;;;;;;4947687;28;21307;-85
2024/04/01 01:35:44;;;;;;;12.65;8.93;;;6.50;99.90;;;;;;4938448;28;21290;-85
2024/04/01 01:38:12;;;;;;;11.82;8.52;;;6.50;99.90;;;;;;4977657;28;21923;-84
2024/04/01 01:40:39;;;;;;;13.18;9.98;;;6.50;99.90;;;;;;4960240;28;20073;-84
2024/04/01 01:43:04;;;;;;;12.70;9.13;;;6.50;99.90;;;;;;4933477;28;20136;-84
2024/04/01 01:45:30;;;;;;;11.70;9.98;;;6.60;99.90;;;;;;4930122;28;20109;-84
2024/04/01 01:47:56;;;;;;;14.32;9.00;;;6.60;99.90;;;;;;4931393;28;20033;-84
2024/04/01 01:50:21;;;;;;;13.63;10.32;;;6.60;99.90;;;;;;4966069;28;20029;-84
2024/04/01 01:52:47;;;;;;;15.23;9.88;;;6.50;99.90;;;;;;4969845;28;20053;-83
2024/04/01 01:55:12;;;;;;;16.63;11.07;;;6.50;99.90;;;;;;4920149;28;20044;-84
2024/04/01 01:57:38;;;;;;;18.85;11.40;;;6.50;99.90;;;;;;4912450;28;21271;-82
2024/04/01 02:00:05;;;;;;;16.58;10.80;;;6.50;99.90;;;;;;4947580;28;20609;-82
2024/04/01 02:02:32;;;;;;;16.63;10.93;;;6.50;99.90;;;;;;4918071;28;20033;-82
2024/04/01 02:04:59;;;;;;;16.50;11.13;;;6.50;99.90;;;;;;4969541;28;20086;-81
2024/04/01 02:07:25;;;;;;;15.77;11.00;;;6.50;99.90;;;;;;4961117;28;20120;-83
2024/04/01 02:09:50;;;;;;;16.20;11.30;;;6.50;99.90;;;;;;4905176;28;20059;-84
2024/04/01 02:12:16;;;;;;;11.73;10.10;;;6.50;99.90;;;;;;4934862;28;20123;-84
2024/04/01 02:14:45;;;;;;;16.08;11.50;;;6.50;99.90;;;;;;4960060;28;20172;-84
2024/04/01 02:17:11;;;;;;;14.55;11.35;;;6.50;99.90;;;;;;4959383;28;21668;-84
2024/04/01 02:19:37;;;;;;;17.20;11.65;;;6.50;99.90;;;;;;5005323;28;20121;-84
2024/04/01 02:22:03;;;;;;;14.23;11.32;;;6.50;99.90;;;;;;4962433;28;20408;-84
2024/04/01 02:24:29;;;;;;;17.30;12.68;;;6.50;99.90;;;;;;4957076;28;20021;-84
2024/04/01 02:26:55;;;;;;;16.23;12.65;;;6.50;99.90;;;;;;4982424;28;20021;-83
2024/04/01 02:29:22;;;;;;;16.63;12.50;;;6.50;99.90;;;;;;4950578;28;20032;-85
2024/04/01 02:31:48;;;;;;;18.30;12.77;;;6.50;99.90;;;;;;5010904;28;20029;-83
2024/04/01 02:34:14;;;;;;;17.65;12.48;;;6.50;99.90;;;;;;4942090;28;20033;-83
2024/04/01 02:36:40;;;;;;;17.08;12.02;;;6.50;99.90;;;;;;4949140;28;21776;-85
2024/04/01 02:39:06;;;;;;;18.75;12.95;;;6.50;99.90;;;;;;4978029;28;20037;-83
2024/04/01 02:41:32;;;;;;;22.05;13.43;;;6.50;99.90;;;;;;4933788;28;20033;-83
2024/04/01 02:43:58;;;;;;;20.85;13.55;;;6.50;99.90;;;;;;4938099;28;20036;-82
2024/04/01 02:46:24;;;;;;;18.35;13.90;;;6.40;99.90;;;;;;4976193;28;20021;-83
2024/04/01 02:48:49;;;;;;;22.02;13.55;;;6.40;99.90;;;;;;4913296;28;20035;-84
2024/04/01 02:51:15;;;;;;;20.10;13.15;;;6.40;99.90;;;;;;4982608;28;20385;-85
2024/04/01 02:53:47;;;;;;;20.17;14.35;;;6.40;99.90;;;;;;4941097;28;20049;-84
2024/04/01 02:56:14;;;;;;;21.67;13.70;;;6.50;99.90;;;;;;4936626;28;22189;-84
2024/04/01 02:58:41;;;;;;;20.42;13.65;;;6.50;99.90;;;;;;4989509;28;20053;-84
2024/04/01 03:01:10;;;;;;;21.80;13.88;;;6.40;99.90;;;;;;4930316;28;20036;-83
2024/04/01 03:03:36;;;;;;;17.25;12.52;;;6.50;99.90;;;;;;4910438;28;20689;-84
2024/04/01 03:06:03;;;;;;;21.70;14.75;;;6.40;99.90;;;;;;4972025;28;20029;-84
2024/04/01 03:08:29;;;;;;;18.75;13.23;;;6.50;99.90;;;;;;4917807;28;20316;-83
2024/04/01 03:10:59;;;;;;;17.25;14.02;;;6.50;99.90;;;;;;4959880;28;20017;-82
2024/04/01 03:13:28;;;;;;;16.05;12.73;;;6.40;99.90;;;;;;4984771;28;20040;-84
2024/04/01 03:15:55;;;;;;;18.73;12.45;;;6.40;99.90;;;;;;4931404;28;20033;-85
2024/04/01 03:18:22;;;;;;;21.05;13.90;;;6.40;99.90;;;;;;4980186;28;20288;-82
2024/04/01 03:20:48;;;;;;;20.33;13.07;;;6.40;99.90;;;;;;4939378;28;20037;-82
2024/04/01 03:23:14;;;;;;;20.15;13.52;;;6.30;99.90;;;;;;4923485;28;22051;-84
2024/04/01 03:25:40;;;;;;;18.08;13.60;;;6.30;99.90;;;;;;4970322;28;20033;-84
2024/04/01 03:28:06;;;;;;;18.30;12.43;;;6.30;99.90;;;;;;4921760;28;20036;-84
2024/04/01 03:30:32;;;;;;;21.33;13.35;;;6.30;99.90;;;;;;4917344;28;20912;-82
2024/04/01 03:32:57;;;;;;;19.35;14.13;;;6.30;99.90;;;;;;4978361;28;20037;-85
2024/04/01 03:35:23;;;;;;;22.08;14.85;;;6.30;99.90;;;;;;4915701;28;20030;-84
2024/04/01 03:37:49;;;;;;;21.00;15.02;;;6.20;99.90;;;;;;4982259;28;20056;-84
2024/04/01 03:40:14;;;;;;;22.92;15.07;;;6.20;99.90;;;;;;4927457;28;20117;-83
2024/04/01 03:42:40;;;;;;;21.63;14.43;;;6.20;99.90;;;;;;4933269;28;20111;-83
2024/04/01 03:45:06;;;;;;;21.20;14.73;;;6.20;99.90;;;;;;4986008;28;20033;-83
2024/04/01 03:47:32;;;;;;;20.52;15.10;;;6.20;99.90;;;;;;4909843;28;20047;-85
2024/04/01 03:49:58;;;;;;;21.25;15.02;;;6.20;99.90;;;;;;4920242;28;20053;-83
2024/04/01 03:52:24;;;;;;;21.67;14.55;;;6.20;99.90;;;;;;4957921;28;20112;-83
2024/04/01 03:54:49;;;;;;;21.60;15.02;;;6.20;99.90;;;;;;4919921;28;21188;-85
2024/04/01 03:57:16;;;;;;;25.70;15.98;;;6.20;99.90;;;;;;4979690;28;20033;-84
2024/04/01 03:59:42;;;;;;;26.20;15.18;;;6.20;99.90;;;;;;4916803;28;20052;-84
2024/04/01 04:02:07;;;;;;;22.98;15.98;;;6.20;99.90;;;;;;4925506;28;20022;-83
2024/04/01 04:04:34;;;;;;;22.58;16.67;;;6.20;99.90;;;;;;4955064;28;20041;-84
2024/04/01 04:06:59;;;;;;;25.25;16.05;;;6.10;99.90;;;;;;4900607;28;20485;-83
2024/04/01 04:09:26;;;;;;;27.33;17.08;;;6.20;99.90;;;;;;4960973;28;20021;-83
2024/04/01 04:11:52;;;;;;;20.17;14.80;;;6.20;99.90;;;;;;4940866;28;20036;-82
2024/04/01 04:14:19;;;;;;;23.98;15.98;;;6.10;99.90;;;;;;4910937;28;22321;-84
2024/04/01 04:16:45;;;;;;;21.10;15.68;;;6.10;99.90;;;;;;4962702;28;20029;-84
2024/04/01 04:19:11;;;;;;;23.17;15.25;;;6.10;99.90;;;;;;4915995;28;20087;-84
2024/04/01 04:21:36;;;;;;;29.15;16.33;;;6.10;99.90;;;;;;4917466;28;20156;-85
2024/04/01 04:24:02;;;;;;;23.00;16.80;;;6.10;99.90;;;;;;4983262;28;20030;-85
2024/04/01 04:26:28;;;;;;;25.67;16.52;;;6.10;99.90;;;;;;4928782;28;20028;-83
2024/04/01 04:28:53;;;;;;;26.08;16.45;;;6.10;99.90;;;;;;4951378;28;20032;-83
2024/04/01 04:31:19;;;;;;;24.67;15.52;;;6.10;99.90;;;;;;4940550;28;20572;-84
2024/04/01 04:33:46;;;;;;;20.52;14.95;;;6.10;99.90;;;;;;4916152;28;21800;-85
2024/04/01 04:36:12;;;;;;;23.65;16.75;;;6.10;99.90;;;;;;4964776;28;20025;-84
2024/04/01 04:38:37;;;;;;;23.80;17.10;;;6.00;99.90;;;;;;4914856;28;20061;-84
2024/04/01 04:41:04;;;;;;;20.67;16.20;;;6.00;99.90;;;;;;4924095;28;20026;-84
2024/04/01 04:43:30;;;;;;;22.02;15.10;;;6.00;99.90;;;;;;4959047;28;20017;-85
2024/04/01 04:45:56;;;;;;;21.45;16.08;;;6.00;99.90;;;;;;4913354;28;20036;-84
2024/04/01 04:48:22;;;;;;;25.88;16.20;;;6.00;99.90;;;;;;4965159;28;20041;-83
2024/04/01 04:50:48;;;;;;;25.08;16.00;;;6.00;99.90;;;;;;4945134;28;20041;-85
2024/04/01 04:53:13;;;;;;;23.05;16.88;;;6.00;99.90;;;;;;4927319;28;21421;-86
2024/04/01 04:55:42;;;;;;;25.77;16.67;;;6.00;99.90;;;;;;4964430;28;20065;-83
2024/04/01 04:58:09;;;;;;;22.25;17.15;;;6.00;99.90;;;;;;4917561;28;20018;-84
2024/04/01 05:00:34;;;;;;;27.33;16.17;;;6.00;99.90;;;;;;4929136;28;20432;-83
2024/04/01 05:03:00;;;;;;;23.40;16.30;;;6.00;99.90;;;;;;4983878;28;20029;-83
2024/04/01 05:05:26;;;;;;;25.45;16.20;;;6.00;99.90;;;;;;4910596;28;20048;-83
2024/04/01 05:07:52;;;;;;;22.27;15.80;;;5.90;99.90;;;;;;4970637;28;20470;-83
2024/04/01 05:10:17;;;;;;;20.20;15.60;;;5.90;99.90;;;;;;4939414;28;20521;-84
2024/04/01 05:12:43;;;;;;;26.88;17.00;;;6.00;99.90;;;;;;4923987;28;21355;-83
2024/04/01 05:15:09;;;;;;;22.27;16.75;;;5.90;99.90;;;;;;4972629;28;20044;-83
2024/04/01 05:17:38;;;;;;;25.25;16.60;;;5.90;99.90;;;;;;4898633;28;20154;-83
2024/04/01 05:20:04;;;;;;;25.15;16.48;;;5.90;99.90;;;;;;4904963;28;20112;-83
2024/04/01 05:22:30;;;;;;;25.10;17.27;;;5.90;99.90;;;;;;4984311;28;20388;-83
2024/04/01 05:24:56;;;;;;;25.15;17.83;;;5.90;99.90;;;;;;4930804;28;20048;-84
2024/04/01 05:27:22;;;;;;;25.08;17.13;;;5.90;99.90;;;;;;4956250;28;20025;-82
2024/04/01 05:30:09;;;;;;;25.67;16.48;;;5.90;99.90;;;;;;4937378;28;20092;-83
2024/04/01 05:32:34;;;;;;;25.83;16.58;;;5.90;99.90;;;;;;4897450;28;20025;-83
2024/04/01 05:35:01;;;;;;;22.75;16.15;;;5.90;99.90;;;;;;4901046;28;20037;-84
2024/04/01 05:37:27;;;;;;;26.38;17.58;;;5.90;99.90;;;;;;4949538;28;20060;-83
2024/04/01 05:39:53;;;;;;;20.40;15.88;;;6.00;99.90;;;;;;4903007;28;20041;-83
2024/04/01 05:42:20;;;;;;;23.58;16.23;;;6.00;99.90;;;;;;4968644;28;20346;-82
2024/04/01 05:44:46;;;;;;;26.58;17.20;;;6.00;99.90;;;;;;4914959;28;20025;-83
2024/04/01 05:47:11;;;;;;;25.60;17.08;;;6.00;99.90;;;;;;4893664;28;21512;-84
2024/04/01 05:49:37;;;;;;;28.73;18.48;;;6.00;99.90;;;;;;4949412;28;20109;-83
2024/04/01 05:52:03;;;;;;;24.08;17.42;;;6.00;99.90;;;;;;4914676;28;20070;-83
2024/04/01 05:54:29;;;;;;;22.65;16.70;;;6.10;99.90;;;;;;4929338;28;20033;-82
2024/04/01 05:56:59;;;;;;;25.85;17.35;;;6.10;99.90;;;;;;4977572;28;20025;-83
2024/04/01 05:59:25;;;;;;;24.77;18.52;;;6.10;99.90;;;;;;4898846;28;20025;-84
2024/04/01 06:01:55;;;;;;;25.98;16.85;;;6.20;99.90;;;;;;4936597;28;20041;-82
2024/04/01 06:04:21;;;;;;;25.20;17.58;;;6.20;99.90;;;;;;4924625;28;20030;-83
2024/04/01 06:06:47;;;;;;;25.80;18.80;;;6.20;99.90;;;;;;4912590;28;21394;-85
2024/04/01 06:09:14;;;;;;;24.40;16.35;;;6.20;99.90;;;;;;4982067;28;20036;-84
2024/04/01 06:11:40;;;;;;;25.67;16.83;;;6.20;99.90;;;;;;4899722;28;20041;-83
2024/04/01 06:14:06;;;;;;;26.50;17.30;;;6.20;99.90;;;;;;4907164;28;20105;-84
2024/04/01 06:16:32;;;;;;;24.70;16.15;;;6.20;99.90;;;;;;4962926;28;20056;-83
2024/04/01 06:18:57;;;;;;;25.27;17.88;;;6.20;99.90;;;;;;4891180;28;20124;-82
2024/04/01 06:21:23;;;;;;;26.83;19.10;;;6.30;99.90;;;;;;4937935;28;20036;-83
2024/04/01 06:23:49;;;;;;;25.58;17.98;;;6.30;99.90;;;;;;4924737;28;20026;-83
2024/04/01 06:26:14;;;;;;;22.73;16.55;;;6.30;99.90;;;;;;4943338;28;20029;-83
2024/04/01 06:28:40;;;;;;;24.30;17.80;;;6.30;99.90;;;;;;5012339;28;20029;-84
2024/04/01 06:31:06;;;;;;;23.23;17.25;;;6.30;99.90;;;;;;4988688;28;20103;-83
2024/04/01 06:33:33;;;;;;;23.67;17.60;;;6.40;99.90;;;;;;4985909;28;20036;-84
2024/04/01 06:36:08;;;;;;;23.05;17.70;;;6.40;99.90;;;;;;5006421;28;20557;-83
2024/04/01 06:38:33;;;;;;;24.00;16.65;;;6.40;99.90;;;;;;4985824;28;20021;-83
2024/04/01 06:40:59;;;;;;;23.60;17.60;;;6.40;99.90;;;;;;4994385;28;20037;-81
2024/04/01 06:43:25;;;;;;;23.27;16.20;;;6.40;99.90;;;;;;5000518;28;20168;-83
2024/04/01 06:45:55;;;;;;;26.27;17.38;;;6.40;99.90;;;;;;5006453;28;20038;-84
2024/04/01 06:48:21;;;;;;;26.58;18.17;;;6.50;99.90;;;;;;5020593;28;20036;-82
2024/04/01 06:50:47;;;;;;;24.25;16.17;;;6.50;99.90;;;;;;4989905;28;20026;-83
2024/04/01 06:53:12;;;;;;;24.33;17.00;;;6.50;99.90;;;;;;4988963;28;20101;-83
2024/04/01 06:55:38;;;;;;;24.75;17.05;;;6.50;99.90;;;;;;5010622;28;20026;-83
2024/04/01 06:58:04;;;;;;;24.95;19.02;;;6.60;99.90;;;;;;4990619;28;20431;-82
2024/04/01 07:00:31;;;;;;;25.13;19.23;;;6.60;99.90;;;;;;4968180;28;20022;-82
2024/04/01 07:02:57;;;;;;;24.77;16.98;;;6.60;99.90;;;;;;5023742;28;20026;-83
2024/04/01 07:05:23;;;;;;;25.80;18.83;;;6.60;99.90;;;;;;4984924;28;20021;-85
2024/04/01 07:07:48;;;;;;;23.63;17.75;;;6.70;99.90;;;;;;4971298;28;20029;-84
2024/04/01 07:10:15;;;;;;;31.10;19.75;;;6.70;99.90;;;;;;4968300;28;20048;-85
2024/04/01 07:12:40;;;;;;;24.73;15.82;;;6.80;99.90;;;;;;4955446;28;20038;-85
2024/04/01 07:15:08;;;;;;;21.58;17.10;;;6.80;99.90;;;;;;5013834;28;20028;-85
2024/04/01 07:17:37;;;;;;;25.55;18.20;;;6.80;99.90;;;;;;4964602;28;20026;-84
2024/04/01 07:20:04;;;;;;;27.02;18.67;;;6.80;99.90;;;;;;4955213;28;20028;-84
2024/04/01 07:22:30;;;;;;;26.52;18.05;;;6.90;99.90;;;;;;4951090;28;20045;-84
2024/04/01 07:24:56;;;;;;;32.20;19.23;;;6.90;99.90;;;;;;4953281;28;20048;-84
2024/04/01 07:27:21;;;;;;;30.83;20.80;;;6.90;99.90;;;;;;4994805;28;20028;-84
2024/04/01 07:29:47;;;;;;;34.63;21.20;;;7.00;99.90;;;;;;4936524;28;20541;-83
2024/04/01 07:32:12;;;;;;;26.35;18.70;;;7.00;99.90;;;;;;4929741;28;20029;-84
2024/04/01 07:34:38;;;;;;;30.40;19.70;;;7.00;99.90;;;;;;4924714;28;20122;-83
2024/04/01 07:37:05;;;;;;;29.60;20.30;;;7.00;99.90;;;;;;4952554;28;20323;-85
2024/04/01 07:39:33;;;;;;;31.33;20.33;;;7.10;99.90;;;;;;4936558;28;20033;-83
2024/04/01 07:42:00;;;;;;;26.77;19.27;;;7.10;99.90;;;;;;4994703;28;20044;-84
2024/04/01 07:44:25;;;;;;;26.67;19.42;;;7.10;99.90;;;;;;4963334;28;20727;-84
2024/04/01 07:46:51;;;;;;;24.65;18.73;;;7.10;99.90;;;;;;4936935;28;20021;-85
2024/04/01 07:49:16;;;;;;;25.13;19.13;;;7.10;99.90;;;;;;4952916;28;20029;-85
2024/04/01 07:51:42;;;;;;;25.15;17.85;;;7.10;99.90;;;;;;4930224;28;20033;-85
2024/04/01 07:54:07;;;;;;;23.85;18.25;;;7.10;99.90;;;;;;4975690;28;20048;-86
2024/04/01 07:56:34;;;;;;;26.70;19.05;;;7.20;99.90;;;;;;4965035;28;20066;-85
2024/04/01 07:58:59;;;;;;;28.65;20.42;;;7.20;99.90;;;;;;4919572;28;20388;-85
2024/04/01 08:01:25;;;;;;;26.60;19.73;;;7.20;99.90;;;;;;4920479;28;20025;-84
2024/04/01 08:03:56;;;;;;;25.15;20.08;;;7.20;99.90;;;;;;4924700;28;21570;-86
2024/04/01 08:06:21;;;;;;;28.63;21.38;;;7.20;99.90;;;;;;4980802;28;20159;-85
2024/04/01 08:08:47;;;;;;;30.08;21.27;;;7.20;99.90;;;;;;4954856;28;20097;-85
2024/04/01 08:11:13;;;;;;;29.75;21.15;;;7.20;99.90;;;;;;4906619;28;20041;-85
2024/04/01 08:13:38;;;;;;;29.80;22.08;;;7.30;99.90;;;;;;4916974;28;20025;-84
2024/04/01 08:16:04;;;;;;;29.17;20.58;;;7.20;99.90;;;;;;4936602;28;20026;-85
2024/04/01 08:18:30;;;;;;;34.58;22.65;;;7.30;99.90;;;;;;4915669;28;20326;-83
2024/04/01 08:20:58;;;;;;;30.35;22.92;;;7.30;99.90;;;;;;4969144;28;20021;-83
2024/04/01 08:23:24;;;;;;;30.10;21.38;;;7.40;99.90;;;;;;4950811;28;20029;-85
2024/04/01 08:25:50;;;;;;;32.95;21.95;;;7.40;99.90;;;;;;4898575;28;20068;-86
2024/04/01 08:28:16;;;;;;;33.95;21.35;;;7.50;99.90;;;;;;4921190;28;20022;-85
2024/04/01 08:30:42;;;;;;;35.05;21.90;;;7.50;99.90;;;;;;4907916;28;20116;-86
2024/04/01 08:33:08;;;;;;;29.48;19.70;;;7.60;99.90;;;;;;4956705;28;20104;-85
2024/04/01 08:35:33;;;;;;;26.63;19.15;;;7.60;99.90;;;;;;4962042;28;20076;-85
2024/04/01 08:37:59;;;;;;;26.90;19.42;;;7.70;99.90;;;;;;4901848;28;20030;-85
2024/04/01 08:40:25;;;;;;;30.20;22.83;;;7.70;99.90;;;;;;4908465;28;20025;-85
2024/04/01 08:43:00;;;;;;;27.58;20.35;;;7.70;99.90;;;;;;4933022;28;21253;-85
2024/04/01 08:45:38;;;;;;;26.95;21.38;;;7.80;99.90;;;;;;4935499;28;20049;-84
2024/04/01 08:48:09;;;;;;;30.90;21.95;;;7.80;99.90;;;;;;4950895;28;20108;-85
2024/04/01 08:50:46;;;;;;;27.95;21.05;;;7.90;99.90;;;;;;4970455;28;20048;-86
2024/04/01 08:53:48;;;;;;;29.00;22.13;;;7.90;99.90;;;;;;4988517;28;20044;-85
2024/04/01 08:56:26;;;;;;;30.67;20.77;;;7.90;99.90;;;;;;4996120;28;20080;-85
2024/04/01 08:59:02;;;;;;;26.60;20.13;;;7.90;99.90;;;;;;5003266;28;20026;-84
2024/04/01 09:01:34;;;;;;;;;;;7.90;99.90;;;;;;4991868;28;20026;-86
2024/04/01 09:04:02;;;;;;;28.77;19.98;;;8.00;99.90;;;;;;5012250;28;19909;-84
2024/04/01 09:06:39;;;;;;;26.52;19.73;;;8.00;99.90;;;;;;4983095;28;20024;-85
2024/04/01 09:09:35;;;;;;;27.50;20.30;;;7.90;99.90;;;;;;4986019;28;20041;-85
2024/04/01 09:12:04;;;;;;;23.05;17.98;;;7.90;99.90;;;;;;4991924;28;20034;-85
2024/04/01 09:14:32;;;;;;;25.63;20.67;;;8.00;99.90;;;;;;5024316;28;20029;-86
2024/04/01 09:17:02;;;;;;;26.85;20.98;;;8.00;99.90;;;;;;4990144;28;20037;-85
2024/04/01 09:19:34;;;;;;;29.75;21.25;;;8.00;99.90;;;;;;4989431;28;20105;-85
2024/04/01 09:22:13;;;;;;;28.38;21.52;;;8.00;99.90;;;;;;5030014;28;20663;-84
2024/04/01 09:24:39;;;;;;;23.90;19.58;;;8.00;99.90;;;;;;4941651;28;20052;-82
2024/04/01 09:27:04;;;;;;;25.52;18.90;;;8.00;99.90;;;;;;4931928;28;20025;-86
2024/04/01 09:29:31;;;;;;;24.95;18.20;;;8.00;99.90;;;;;;4966125;28;20115;-86
2024/04/01 09:31:57;;;;;;;23.13;18.67;;;8.00;99.90;;;;;;4918672;28;20724;-87
2024/04/01 09:34:23;;;;;;;25.63;18.92;;;8.10;99.90;;;;;;4967396;28;20045;-83
2024/04/01 09:36:51;;;;;;;27.02;20.20;;;8.10;99.90;;;;;;4950066;28;20490;-83
2024/04/01 09:39:16;;;;;;;26.77;19.23;;;8.10;99.90;;;;;;4925686;28;21496;-83
2024/04/01 09:41:43;;;;;;;27.27;19.92;;;8.20;99.90;;;;;;4973893;28;20026;-84
2024/04/01 09:44:11;;;;;;;23.58;18.90;;;8.20;99.90;;;;;;4915001;28;20117;-85
2024/04/01 09:46:37;;;;;;;25.95;19.38;;;8.20;99.90;;;;;;4930606;28;20379;-83
2024/04/01 09:49:05;;;;;;;23.45;19.17;;;8.20;99.90;;;;;;4969800;28;20063;-84
2024/04/01 09:51:39;;;;;;;28.40;20.70;;;8.20;99.90;;;;;;4930535;28;20108;-84
2024/04/01 09:54:05;;;;;;;23.75;17.80;;;8.20;99.90;;;;;;4966888;28;20045;-82
2024/04/01 09:57:04;;;;;;;29.00;20.30;;;8.20;99.90;;;;;;5002297;28;20067;-84
2024/04/01 10:00:05;;;;;;;27.20;19.13;;;8.20;99.90;;;;;;4991609;28;20038;-83
2024/04/01 10:03:03;;;;;;;27.05;19.33;;;8.20;99.90;;;;;;5005973;28;20057;-82
2024/04/01 10:05:29;;;;;;;25.45;18.67;;;8.20;99.90;;;;;;4987707;28;20025;-84
2024/04/01 10:07:58;;;;;;;28.45;19.55;;;8.20;99.90;;;;;;4915286;28;20021;-83
2024/04/01 10:10:42;;;;;;;25.38;19.98;;;8.20;99.90;;;;;;4988216;28;20033;-84
2024/04/01 10:13:55;;;;;;;25.80;20.23;;;8.20;99.90;;;;;;4993938;28;20021;-85
2024/04/01 10:16:51;;;;;;;24.35;19.77;;;8.20;99.90;;;;;;4976267;28;20057;-85
2024/04/01 10:19:43;;;;;;;29.65;20.55;;;8.20;99.90;;;;;;4983793;28;20030;-86
2024/04/01 10:22:47;;;;;;;27.98;19.85;;;8.30;99.90;;;;;;4995520;28;20021;-85
2024/04/01 10:26:07;;;;;;;29.35;19.63;;;8.30;99.90;;;;;;4989479;28;20079;-86
2024/04/01 10:29:10;;;;;;;27.58;20.98;;;8.40;99.90;;;;;;4925180;28;20044;-85
2024/04/01 10:31:59;;;;;;;30.25;21.85;;;8.40;99.90;;;;;;4906129;28;20037;-86
2024/04/01 10:34:55;;;;;;;29.13;20.42;;;8.40;99.90;;;;;;4945403;28;20180;-84
2024/04/01 10:38:08;;;;;;;29.77;20.85;;;8.50;99.90;;;;;;4979924;28;20414;-85
2024/04/01 10:41:06;;;;;;;24.80;20.17;;;8.50;99.90;;;;;;4910831;28;20116;-83
2024/04/01 10:44:00;;;;;;;29.77;20.23;;;8.50;99.90;;;;;;4907073;28;20050;-84
2024/04/01 10:47:09;;;;;;;24.30;18.85;;;8.60;99.90;;;;;;4950299;28;20529;-85
2024/04/01 10:50:00;;;;;;;23.05;18.20;;;8.60;99.90;;;;;;4916477;28;20029;-88
2024/04/01 10:52:45;;;;;;;23.50;17.83;;;8.60;99.90;;;;;;4966546;28;20096;-84
2024/04/01 10:55:33;;;;;;;23.65;18.63;;;8.60;99.90;;;;;;4988218;28;20413;-85
2024/04/01 10:58:17;;;;;;;23.63;17.45;;;8.70;99.90;;;;;;4975479;28;20037;-84
2024/04/01 11:01:11;;;;;;;23.17;17.52;;;8.80;99.90;;;;;;4890948;28;20060;-83
2024/04/01 11:03:40;;;;;;;25.05;17.50;;;8.80;99.90;;;;;;4926199;28;20028;-83
2024/04/01 11:06:21;;;;;;;23.77;17.73;;;8.80;99.90;;;;;;4904069;28;20017;-81
2024/04/01 11:09:28;;;;;;;25.42;18.65;;;8.90;99.90;;;;;;4965332;28;20059;-84
2024/04/01 11:12:16;;;;;;;21.30;17.30;;;8.90;99.90;;;;;;4954093;28;20041;-84
2024/04/01 11:14:45;;;;;;;22.02;17.75;;;9.00;99.90;;;;;;4969042;28;20029;-82
2024/04/01 11:17:11;;;;;;;27.63;19.23;;;9.00;99.90;;;;;;4921285;28;20109;-85
2024/04/01 11:19:40;;;;;;;25.23;18.08;;;9.10;99.90;;;;;;4889629;28;20505;-83
2024/04/01 11:22:13;;;;;;;23.15;17.73;;;9.00;99.90;;;;;;4980957;28;20084;-84
2024/04/01 11:25:14;;;;;;;23.17;18.23;;;9.10;99.90;;;;;;4906178;28;20070;-83
2024/04/01 11:27:52;;;;;;;22.58;17.00;;;9.20;99.90;;;;;;4908790;28;20037;-83
2024/04/01 11:30:34;;;;;;;22.75;18.23;;;9.20;99.90;;;;;;4915299;28;21612;-82
2024/04/01 11:33:06;;;;;;;23.77;18.48;;;9.30;99.90;;;;;;4904572;28;20120;-81
2024/04/01 11:35:51;;;;;;;26.13;18.95;;;9.30;99.90;;;;;;4954915;28;20485;-84
2024/04/01 11:38:22;;;;;;;21.30;17.05;;;9.30;99.90;;;;;;4902554;28;20510;-84
2024/04/01 11:40:50;;;;;;;24.38;18.20;;;9.30;99.90;;;;;;4913551;28;21736;-84
2024/04/01 11:43:18;;;;;;;21.85;17.08;;;9.30;99.90;;;;;;4975291;28;20037;-84
2024/04/01 11:45:46;;;;;;;24.55;18.33;;;9.40;99.90;;;;;;4896590;28;20027;-84
2024/04/01 11:48:17;;;;;;;22.10;17.15;;;9.40;99.90;;;;;;4890612;28;21543;-83
2024/04/01 11:50:50;;;;;;;27.10;19.20;;;9.40;99.90;;;;;;4966689;28;20036;-84
2024/04/01 11:53:16;;;;;;;23.00;18.40;;;9.50;99.90;;;;;;4944490;28;20052;-84
2024/04/01 11:55:58;;;;;;;23.50;18.58;;;9.50;99.90;;;;;;4917287;28;21660;-84
2024/04/01 11:58:25;;;;;;;25.67;19.02;;;9.50;99.90;;;;;;4967782;28;21139;-84
2024/04/01 12:01:11;;;;;;;26.77;18.92;;;9.50;99.90;;;;;;4918127;28;20022;-85
2024/04/01 12:03:47;;;;;;;22.23;17.25;;;9.50;99.90;;;;;;4920312;28;20032;-83
2024/04/01 12:06:18;;;;;;;23.95;17.85;;;9.40;99.90;;;;;;4922180;28;21739;-84
2024/04/01 12:08:43;;;;;;;27.67;18.05;;;9.50;99.90;;;;;;4958847;28;20026;-83
2024/04/01 12:11:10;;;;;;;23.00;16.70;;;9.50;99.90;;;;;;4915258;28;20036;-84
2024/04/01 12:13:40;;;;;;;26.05;18.30;;;9.50;99.90;;;;;;4931629;28;20080;-84
2024/04/01 12:16:08;;;;;;;25.38;18.73;;;9.50;99.90;;;;;;4978715;28;20021;-84
2024/04/01 12:18:47;;;;;;;23.75;17.52;;;9.60;99.90;;;;;;4940490;28;20041;-84
2024/04/01 12:21:15;;;;;;;22.55;16.92;;;9.60;99.90;;;;;;4885444;28;21878;-83
2024/04/01 12:23:43;;;;;;;24.42;17.45;;;9.70;99.90;;;;;;4978047;28;20256;-83
2024/04/01 12:26:10;;;;;;;19.80;17.10;;;9.70;99.90;;;;;;4910729;28;20026;-83
2024/04/01 12:28:36;;;;;;;23.02;17.50;;;9.70;99.90;;;;;;4931234;28;20026;-84
2024/04/01 12:31:02;;;;;;;21.63;15.60;;;9.80;99.90;;;;;;4968197;28;20510;-84
2024/04/01 12:33:30;;;;;;;24.60;17.73;;;9.80;99.90;;;;;;4921320;28;20037;-84
2024/04/01 12:35:57;;;;;;;26.10;16.10;;;9.80;99.90;;;;;;4976091;28;20453;-83
2024/04/01 12:38:23;;;;;;;23.92;16.80;;;9.80;99.90;;;;;;4988249;28;20025;-84
2024/04/01 12:40:54;;;;;;;23.02;17.48;;;9.80;99.90;;;;;;4918171;28;21448;-85
2024/04/01 12:43:26;;;;;;;19.92;15.57;;;9.80;99.90;;;;;;5002225;28;20064;-83
2024/04/01 12:45:53;;;;;;;20.58;15.95;;;9.90;99.90;;;;;;4989501;28;20033;-83
2024/04/01 12:48:20;;;;;;;19.23;14.90;;;9.90;99.90;;;;;;4958069;28;21101;-84
2024/04/01 12:50:47;;;;;;;20.23;15.23;;;10.00;99.90;;;;;;4958498;28;20033;-85